sensor_id;sensor_type;location;lat;lon;timestamp;pressure;altitude;pressure_sealevel;temperature;humidity
30967;BME280;17649;51.836;8.330;2023-06-22T00:01:26;101284.03;;;20.71;nan
30967;BME280;17649;51.836;8.330;2023-06-22T00:04:26;101271.63;;;20.92;nan
30967;BME280;17649;51.836;8.330;2023-06-22T00:07:26;101279.38;;;20.84;nan
30967;BME280;17649;51.836;8.330;2023-06-22T00:10:27;101265.53;;;20.92;nan
30967;BME280;17649;51.836;8.330;2023-06-22T00:13:27;101270.50;;;20.95;nan
30967;BME280;17649;51.836;8.330;2023-06-22T00:16:27;101259.97;;;20.95;nan
30967;BME280;17649;51.836;8.330;2023-06-22T00:19:27;101260.81;;;20.95;nan
30967;BME280;17649;51.836;8.330;2023-06-22T00:22:28;101262.47;;;20.96;nan
30967;BME280;17649;51.836;8.330;2023-06-22T00:25:28;101251.25;;;20.84;nan
30967;BME280;17649;51.836;8.330;2023-06-22T00:28:28;101246.56;;;20.88;nan
30967;BME280;17649;51.836;8.330;2023-06-22T00:31:29;101238.53;;;20.90;nan
30967;BME280;17649;51.836;8.330;2023-06-22T00:34:29;101236.16;;;20.96;nan
30967;BME280;17649;51.836;8.330;2023-06-22T00:37:29;101233.41;;;20.98;nan
30967;BME280;17649;51.836;8.330;2023-06-22T00:40:30;101215.41;;;20.83;nan
30967;BME280;17649;51.836;8.330;2023-06-22T00:43:31;101221.88;;;20.70;nan
30967;BME280;17649;51.836;8.330;2023-06-22T00:46:31;101241.50;;;20.66;nan
30967;BME280;17649;51.836;8.330;2023-06-22T00:49:32;101247.44;;;20.58;nan
30967;BME280;17649;51.836;8.330;2023-06-22T00:52:32;101249.94;;;20.60;nan
30967;BME280;17649;51.836;8.330;2023-06-22T00:55:35;101236.66;;;20.61;nan
30967;BME280;17649;51.836;8.330;2023-06-22T00:58:37;101231.97;;;20.65;nan
30967;BME280;17649;51.836;8.330;2023-06-22T01:01:41;101235.88;;;20.70;nan
30967;BME280;17649;51.836;8.330;2023-06-22T01:04:41;101233.66;;;20.75;nan
30967;BME280;17649;51.836;8.330;2023-06-22T01:07:43;101221.75;;;20.71;nan
30967;BME280;17649;51.836;8.330;2023-06-22T01:13:50;101217.84;;;20.66;nan
30967;BME280;17649;51.836;8.330;2023-06-22T01:16:53;101220.66;;;20.74;nan
30967;BME280;17649;51.836;8.330;2023-06-22T01:19:55;101222.03;;;20.68;nan
30967;BME280;17649;51.836;8.330;2023-06-22T01:26:05;101222.03;;;20.68;nan
30967;BME280;17649;51.836;8.330;2023-06-22T01:29:06;101218.97;;;20.73;nan
30967;BME280;17649;51.836;8.330;2023-06-22T01:32:08;101217.59;;;20.69;nan
30967;BME280;17649;51.836;8.330;2023-06-22T01:35:09;101228.53;;;20.74;nan
30967;BME280;17649;51.836;8.330;2023-06-22T01:38:10;101222.03;;;20.68;nan
30967;BME280;17649;51.836;8.330;2023-06-22T01:41:10;101233.38;;;20.69;nan
30967;BME280;17649;51.836;8.330;2023-06-22T01:44:11;101229.19;;;20.66;nan
30967;BME280;17649;51.836;8.330;2023-06-22T01:47:12;101227.94;;;20.61;nan
30967;BME280;17649;51.836;8.330;2023-06-22T01:50:13;101224.75;;;20.67;nan
30967;BME280;17649;51.836;8.330;2023-06-22T01:53:14;101221.72;;;20.62;nan
30967;BME280;17649;51.836;8.330;2023-06-22T01:56:16;101216.31;;;20.53;nan
30967;BME280;17649;51.836;8.330;2023-06-22T02:02:17;101233.09;;;20.72;nan
30967;BME280;17649;51.836;8.330;2023-06-22T02:05:19;101232.25;;;20.62;nan
30967;BME280;17649;51.836;8.330;2023-06-22T02:08:30;101235.72;;;20.72;nan
30967;BME280;17649;51.836;8.330;2023-06-22T02:11:31;101225.91;;;20.74;nan
30967;BME280;17649;51.836;8.330;2023-06-22T02:14:33;101231.84;;;20.76;nan
30967;BME280;17649;51.836;8.330;2023-06-22T02:17:35;101231.16;;;20.74;nan
30967;BME280;17649;51.836;8.330;2023-06-22T02:20:38;101236.16;;;20.77;nan
30967;BME280;17649;51.836;8.330;2023-06-22T02:23:39;101237.13;;;20.76;nan
30967;BME280;17649;51.836;8.330;2023-06-22T02:26:39;101236.84;;;20.79;nan
30967;BME280;17649;51.836;8.330;2023-06-22T02:29:42;101240.75;;;20.84;nan
30967;BME280;17649;51.836;8.330;2023-06-22T02:32:42;101239.19;;;20.82;nan
30967;BME280;17649;51.836;8.330;2023-06-22T02:35:43;101235.59;;;20.73;nan
30967;BME280;17649;51.836;8.330;2023-06-22T02:38:47;101243.75;;;20.80;nan
30967;BME280;17649;51.836;8.330;2023-06-22T02:41:51;101239.19;;;20.82;nan
30967;BME280;17649;51.836;8.330;2023-06-22T02:44:52;101246.97;;;20.83;nan
30967;BME280;17649;51.836;8.330;2023-06-22T02:47:52;101236.41;;;20.74;nan
30967;BME280;17649;51.836;8.330;2023-06-22T02:50:52;101244.88;;;20.77;nan
30967;BME280;17649;51.836;8.330;2023-06-22T02:53:52;101242.66;;;20.73;nan
30967;BME280;17649;51.836;8.330;2023-06-22T02:56:57;101230.19;;;20.75;nan
30967;BME280;17649;51.836;8.330;2023-06-22T02:59:57;101235.03;;;20.70;nan
30967;BME280;17649;51.836;8.330;2023-06-22T03:02:57;101231.31;;;20.72;nan
30967;BME280;17649;51.836;8.330;2023-06-22T03:05:58;101235.69;;;20.62;nan
30967;BME280;17649;51.836;8.330;2023-06-22T03:09:01;101230.56;;;20.61;nan
30967;BME280;17649;51.836;8.330;2023-06-22T03:12:03;101230.16;;;20.56;nan
30967;BME280;17649;51.836;8.330;2023-06-22T03:15:05;101241.63;;;20.54;nan
30967;BME280;17649;51.836;8.330;2023-06-22T03:18:05;101225.81;;;20.45;nan
30967;BME280;17649;51.836;8.330;2023-06-22T03:21:05;101237.88;;;20.47;nan
30967;BME280;17649;51.836;8.330;2023-06-22T03:24:06;101224.78;;;20.36;nan
30967;BME280;17649;51.836;8.330;2023-06-22T03:27:06;101230.72;;;20.38;nan
30967;BME280;17649;51.836;8.330;2023-06-22T03:30:07;101228.31;;;20.46;nan
30967;BME280;17649;51.836;8.330;2023-06-22T03:33:08;101221.69;;;20.42;nan
30967;BME280;17649;51.836;8.330;2023-06-22T03:36:08;101224.72;;;20.47;nan
30967;BME280;17649;51.836;8.330;2023-06-22T03:39:08;101220.84;;;20.51;nan
30967;BME280;17649;51.836;8.330;2023-06-22T03:42:08;101212.28;;;20.49;nan
30967;BME280;17649;51.836;8.330;2023-06-22T03:45:09;101218.22;;;20.42;nan
30967;BME280;17649;51.836;8.330;2023-06-22T03:48:09;101213.03;;;20.31;nan
30967;BME280;17649;51.836;8.330;2023-06-22T03:51:09;101219.25;;;20.30;nan
30967;BME280;17649;51.836;8.330;2023-06-22T03:54:10;101210.63;;;20.48;nan
30967;BME280;17649;51.836;8.330;2023-06-22T03:57:10;101203.88;;;20.65;nan
30967;BME280;17649;51.836;8.330;2023-06-22T04:00:11;101204.31;;;20.80;nan
30967;BME280;17649;51.836;8.330;2023-06-22T04:03:11;101202.94;;;20.86;nan
30967;BME280;17649;51.836;8.330;2023-06-22T04:06:12;101210.84;;;20.95;nan
30967;BME280;17649;51.836;8.330;2023-06-22T04:09:12;101214.31;;;21.15;nan
30967;BME280;17649;51.836;8.330;2023-06-22T04:12:12;101212.81;;;21.32;nan
30967;BME280;17649;51.836;8.330;2023-06-22T04:15:13;101208.50;;;21.50;nan
30967;BME280;17649;51.836;8.330;2023-06-22T04:18:13;101208.22;;;21.53;nan
30967;BME280;17649;51.836;8.330;2023-06-22T04:21:13;101209.91;;;21.45;nan
30967;BME280;17649;51.836;8.330;2023-06-22T04:24:14;101217.38;;;21.39;nan
30967;BME280;17649;51.836;8.330;2023-06-22T04:27:14;101214.19;;;21.36;nan
30967;BME280;17649;51.836;8.330;2023-06-22T04:30:14;101225.41;;;21.48;nan
30967;BME280;17649;51.836;8.330;2023-06-22T04:33:17;101208.75;;;21.66;nan
30967;BME280;17649;51.836;8.330;2023-06-22T04:36:18;101208.06;;;21.64;nan
30967;BME280;17649;51.836;8.330;2023-06-22T04:39:18;101197.38;;;21.76;nan
30967;BME280;17649;51.836;8.330;2023-06-22T04:42:18;101198.81;;;21.97;nan
30967;BME280;17649;51.836;8.330;2023-06-22T04:45:19;101192.16;;;22.03;nan
30967;BME280;17649;51.836;8.330;2023-06-22T04:48:19;101188.34;;;22.25;nan
30967;BME280;17649;51.836;8.330;2023-06-22T04:51:20;101197.38;;;22.50;nan
30967;BME280;17649;51.836;8.330;2023-06-22T04:54:21;101186.25;;;22.74;nan
30967;BME280;17649;51.836;8.330;2023-06-22T04:57:21;101183.22;;;22.69;nan
30967;BME280;17649;51.836;8.330;2023-06-22T05:00:30;101178.56;;;22.80;nan
30967;BME280;17649;51.836;8.330;2023-06-22T05:03:31;101186.41;;;22.90;nan
30967;BME280;17649;51.836;8.330;2023-06-22T05:06:31;101180.94;;;23.01;nan
30967;BME280;17649;51.836;8.330;2023-06-22T05:09:31;101176.31;;;23.21;nan
30967;BME280;17649;51.836;8.330;2023-06-22T05:12:33;101172.50;;;23.41;nan
30967;BME280;17649;51.836;8.330;2023-06-22T05:15:34;101182.50;;;23.73;nan
30967;BME280;17649;51.836;8.330;2023-06-22T05:18:39;101177.13;;;23.65;nan
30967;BME280;17649;51.836;8.330;2023-06-22T05:21:41;101176.88;;;23.76;nan
30967;BME280;17649;51.836;8.330;2023-06-22T05:24:42;101176.47;;;23.89;nan
30967;BME280;17649;51.836;8.330;2023-06-22T05:27:42;101168.19;;;23.84;nan
30967;BME280;17649;51.836;8.330;2023-06-22T05:30:44;101165.41;;;23.60;nan
30967;BME280;17649;51.836;8.330;2023-06-22T05:33:44;101166.72;;;23.64;nan
30967;BME280;17649;51.836;8.330;2023-06-22T05:36:44;101171.28;;;23.54;nan
30967;BME280;17649;51.836;8.330;2023-06-22T05:39:44;101173.78;;;23.81;nan
30967;BME280;17649;51.836;8.330;2023-06-22T05:42:44;101183.03;;;24.19;nan
30967;BME280;17649;51.836;8.330;2023-06-22T05:45:45;101174.78;;;24.64;nan
30967;BME280;17649;51.836;8.330;2023-06-22T05:48:45;101171.16;;;24.82;nan
30967;BME280;17649;51.836;8.330;2023-06-22T05:51:45;101176.28;;;24.75;nan
30967;BME280;17649;51.836;8.330;2023-06-22T05:54:45;101183.75;;;24.88;nan
30967;BME280;17649;51.836;8.330;2023-06-22T05:57:45;101180.94;;;24.89;nan
30967;BME280;17649;51.836;8.330;2023-06-22T06:00:46;101182.56;;;24.66;nan
30967;BME280;17649;51.836;8.330;2023-06-22T06:03:46;101176.91;;;24.53;nan
30967;BME280;17649;51.836;8.330;2023-06-22T06:06:46;101174.91;;;24.55;nan
30967;BME280;17649;51.836;8.330;2023-06-22T06:09:49;101177.22;;;24.50;nan
30967;BME280;17649;51.836;8.330;2023-06-22T06:12:50;101178.72;;;24.52;nan
30967;BME280;17649;51.836;8.330;2023-06-22T06:15:50;101179.44;;;24.71;nan
30967;BME280;17649;51.836;8.330;2023-06-22T06:18:51;101189.38;;;24.93;nan
30967;BME280;17649;51.836;8.330;2023-06-22T06:21:53;101184.94;;;25.26;nan
30967;BME280;17649;51.836;8.330;2023-06-22T06:24:53;101184.25;;;25.65;nan
30967;BME280;17649;51.836;8.330;2023-06-22T06:27:53;101189.41;;;25.74;nan
30967;BME280;17649;51.836;8.330;2023-06-22T06:30:56;101196.47;;;25.90;nan
30967;BME280;17649;51.836;8.330;2023-06-22T06:33:57;101181.69;;;26.04;nan
30967;BME280;17649;51.836;8.330;2023-06-22T06:36:57;101182.59;;;25.80;nan
30967;BME280;17649;51.836;8.330;2023-06-22T06:39:57;101180.28;;;25.69;nan
30967;BME280;17649;51.836;8.330;2023-06-22T06:42:57;101188.53;;;25.66;nan
30967;BME280;17649;51.836;8.330;2023-06-22T06:45:58;101183.59;;;25.54;nan
30967;BME280;17649;51.836;8.330;2023-06-22T06:48:58;101189.25;;;25.11;nan
30967;BME280;17649;51.836;8.330;2023-06-22T06:51:58;101194.06;;;25.07;nan
30967;BME280;17649;51.836;8.330;2023-06-22T06:54:58;101190.41;;;25.08;nan
30967;BME280;17649;51.836;8.330;2023-06-22T06:57:59;101191.34;;;24.83;nan
30967;BME280;17649;51.836;8.330;2023-06-22T07:00:59;101191.03;;;24.94;nan
30967;BME280;17649;51.836;8.330;2023-06-22T07:04:00;101196.00;;;24.89;nan
30967;BME280;17649;51.836;8.330;2023-06-22T07:07:01;101191.56;;;25.06;nan
30967;BME280;17649;51.836;8.330;2023-06-22T07:10:02;101188.75;;;25.23;nan
30967;BME280;17649;51.836;8.330;2023-06-22T07:13:03;101190.72;;;25.54;nan
30967;BME280;17649;51.836;8.330;2023-06-22T07:16:03;101184.72;;;25.84;nan
30967;BME280;17649;51.836;8.330;2023-06-22T07:19:03;101175.97;;;26.23;nan
30967;BME280;17649;51.836;8.330;2023-06-22T07:22:04;101175.59;;;26.26;nan
30967;BME280;17649;51.836;8.330;2023-06-22T07:25:04;101168.88;;;26.47;nan
30967;BME280;17649;51.836;8.330;2023-06-22T07:28:09;101160.47;;;26.43;nan
30967;BME280;17649;51.836;8.330;2023-06-22T07:31:09;101168.38;;;26.51;nan
30967;BME280;17649;51.836;8.330;2023-06-22T07:34:09;101169.44;;;26.34;nan
30967;BME280;17649;51.836;8.330;2023-06-22T07:37:09;101171.94;;;26.27;nan
30967;BME280;17649;51.836;8.330;2023-06-22T07:40:10;101167.13;;;26.39;nan
30967;BME280;17649;51.836;8.330;2023-06-22T07:43:10;101160.88;;;26.55;nan
30967;BME280;17649;51.836;8.330;2023-06-22T07:46:10;101163.34;;;26.64;nan
30967;BME280;17649;51.836;8.330;2023-06-22T07:49:11;101165.28;;;26.93;nan
30967;BME280;17649;51.836;8.330;2023-06-22T07:52:11;101156.78;;;27.36;nan
30967;BME280;17649;51.836;8.330;2023-06-22T07:55:11;101156.00;;;27.94;nan
30967;BME280;17649;51.836;8.330;2023-06-22T07:58:12;101151.84;;;28.21;nan
30967;BME280;17649;51.836;8.330;2023-06-22T08:01:13;101144.31;;;28.25;nan
30967;BME280;17649;51.836;8.330;2023-06-22T08:04:14;101136.88;;;28.56;nan
30967;BME280;17649;51.836;8.330;2023-06-22T08:07:14;101133.16;;;28.87;nan
30967;BME280;17649;51.836;8.330;2023-06-22T08:10:14;101133.00;;;28.95;nan
30967;BME280;17649;51.836;8.330;2023-06-22T08:13:15;101132.16;;;28.94;nan
30967;BME280;17649;51.836;8.330;2023-06-22T08:16:15;101113.47;;;29.16;nan
30967;BME280;17649;51.836;8.330;2023-06-22T08:19:15;101107.91;;;29.45;nan
30967;BME280;17649;51.836;8.330;2023-06-22T08:22:16;101095.72;;;29.29;nan
30967;BME280;17649;51.836;8.330;2023-06-22T08:25:16;101083.69;;;29.05;nan
30967;BME280;17649;51.836;8.330;2023-06-22T08:28:16;101084.19;;;28.88;nan
30967;BME280;17649;51.836;8.330;2023-06-22T08:31:17;101086.34;;;28.20;nan
30967;BME280;17649;51.836;8.330;2023-06-22T08:34:17;101086.31;;;28.35;nan
30967;BME280;17649;51.836;8.330;2023-06-22T08:37:21;101085.53;;;28.84;nan
30967;BME280;17649;51.836;8.330;2023-06-22T08:40:24;101075.84;;;29.25;nan
30967;BME280;17649;51.836;8.330;2023-06-22T08:43:24;101071.81;;;29.36;nan
30967;BME280;17649;51.836;8.330;2023-06-22T08:46:24;101074.66;;;29.34;nan
30967;BME280;17649;51.836;8.330;2023-06-22T08:49:30;101070.16;;;29.35;nan
30967;BME280;17649;51.836;8.330;2023-06-22T08:52:30;101070.09;;;29.56;nan
30967;BME280;17649;51.836;8.330;2023-06-22T08:55:30;101078.66;;;29.99;nan
30967;BME280;17649;51.836;8.330;2023-06-22T08:58:30;101066.25;;;30.26;nan
30967;BME280;17649;51.836;8.330;2023-06-22T09:01:31;101071.59;;;30.33;nan
30967;BME280;17649;51.836;8.330;2023-06-22T09:04:31;101075.66;;;30.16;nan
30967;BME280;17649;51.836;8.330;2023-06-22T09:07:34;101069.94;;;30.25;nan
30967;BME280;17649;51.836;8.330;2023-06-22T09:10:34;101058.38;;;30.05;nan
30967;BME280;17649;51.836;8.330;2023-06-22T09:13:34;101050.56;;;30.04;nan
30967;BME280;17649;51.836;8.330;2023-06-22T09:16:35;101048.06;;;29.89;nan
30967;BME280;17649;51.836;8.330;2023-06-22T09:19:35;101054.75;;;29.65;nan
30967;BME280;17649;51.836;8.330;2023-06-22T09:22:35;101059.91;;;29.38;nan
30967;BME280;17649;51.836;8.330;2023-06-22T09:25:36;101060.97;;;29.09;nan
30967;BME280;17649;51.836;8.330;2023-06-22T09:28:36;101057.72;;;29.14;nan
30967;BME280;17649;51.836;8.330;2023-06-22T09:31:36;101054.38;;;28.77;nan
30967;BME280;17649;51.836;8.330;2023-06-22T09:34:36;101048.50;;;28.61;nan
30967;BME280;17649;51.836;8.330;2023-06-22T09:37:37;101036.91;;;28.11;nan
30967;BME280;17649;51.836;8.330;2023-06-22T09:40:37;101027.09;;;27.90;nan
30967;BME280;17649;51.836;8.330;2023-06-22T09:43:40;101017.03;;;28.07;nan
30967;BME280;17649;51.836;8.330;2023-06-22T09:46:40;101013.94;;;28.03;nan
30967;BME280;17649;51.836;8.330;2023-06-22T09:49:40;101009.13;;;28.28;nan
30967;BME280;17649;51.836;8.330;2023-06-22T09:52:40;101014.47;;;28.13;nan
30967;BME280;17649;51.836;8.330;2023-06-22T09:55:44;101010.47;;;28.24;nan
30967;BME280;17649;51.836;8.330;2023-06-22T09:58:45;101023.59;;;28.47;nan
30967;BME280;17649;51.836;8.330;2023-06-22T10:01:46;101025.91;;;28.57;nan
30967;BME280;17649;51.836;8.330;2023-06-22T10:04:46;101023.94;;;28.65;nan
30967;BME280;17649;51.836;8.330;2023-06-22T10:07:46;101016.78;;;28.66;nan
30967;BME280;17649;51.836;8.330;2023-06-22T10:10:47;101015.84;;;28.73;nan
30967;BME280;17649;51.836;8.330;2023-06-22T10:13:47;101013.00;;;29.03;nan
30967;BME280;17649;51.836;8.330;2023-06-22T10:16:48;101010.22;;;29.18;nan
30967;BME280;17649;51.836;8.330;2023-06-22T10:19:48;101017.56;;;29.16;nan
30967;BME280;17649;51.836;8.330;2023-06-22T10:22:48;100999.22;;;29.34;nan
30967;BME280;17649;51.836;8.330;2023-06-22T10:25:48;100997.41;;;29.41;nan
30967;BME280;17649;51.836;8.330;2023-06-22T10:28:49;100995.75;;;30.01;nan
30967;BME280;17649;51.836;8.330;2023-06-22T10:31:49;100987.19;;;30.78;nan
30967;BME280;17649;51.836;8.330;2023-06-22T10:34:50;100969.88;;;31.07;nan
30967;BME280;17649;51.836;8.330;2023-06-22T10:37:50;100970.47;;;31.16;nan
30967;BME280;17649;51.836;8.330;2023-06-22T10:40:51;100959.09;;;31.79;nan
30967;BME280;17649;51.836;8.330;2023-06-22T10:43:51;100958.88;;;31.80;nan
30967;BME280;17649;51.836;8.330;2023-06-22T10:46:51;100948.41;;;31.79;nan
30967;BME280;17649;51.836;8.330;2023-06-22T10:49:51;100939.94;;;31.82;nan
30967;BME280;17649;51.836;8.330;2023-06-22T10:52:52;100937.06;;;32.08;nan
30967;BME280;17649;51.836;8.330;2023-06-22T10:55:52;100927.09;;;32.22;nan
30967;BME280;17649;51.836;8.330;2023-06-22T10:58:53;100936.66;;;32.61;nan
30967;BME280;17649;51.836;8.330;2023-06-22T11:01:54;100933.25;;;32.22;nan
30967;BME280;17649;51.836;8.330;2023-06-22T11:04:55;100926.66;;;32.50;nan
30967;BME280;17649;51.836;8.330;2023-06-22T11:07:55;100927.00;;;32.35;nan
30967;BME280;17649;51.836;8.330;2023-06-22T11:10:55;100924.03;;;32.43;nan
30967;BME280;17649;51.836;8.330;2023-06-22T11:13:55;100916.72;;;32.32;nan
30967;BME280;17649;51.836;8.330;2023-06-22T11:16:56;100917.81;;;31.99;nan
30967;BME280;17649;51.836;8.330;2023-06-22T11:19:56;100914.72;;;31.96;nan
30967;BME280;17649;51.836;8.330;2023-06-22T11:22:56;100904.81;;;32.03;nan
30967;BME280;17649;51.836;8.330;2023-06-22T11:25:57;100904.34;;;31.81;nan
30967;BME280;17649;51.836;8.330;2023-06-22T11:28:57;100898.06;;;31.62;nan
30967;BME280;17649;51.836;8.330;2023-06-22T11:31:58;100892.03;;;32.05;nan
30967;BME280;17649;51.836;8.330;2023-06-22T11:34:58;100887.66;;;32.36;nan
30967;BME280;17649;51.836;8.330;2023-06-22T11:37:58;100876.94;;;33.09;nan
30967;BME280;17649;51.836;8.330;2023-06-22T11:40:58;100866.56;;;32.82;nan
30967;BME280;17649;51.836;8.330;2023-06-22T11:43:59;100871.75;;;31.91;nan
30967;BME280;17649;51.836;8.330;2023-06-22T11:46:59;100857.00;;;31.82;nan
30967;BME280;17649;51.836;8.330;2023-06-22T11:50:00;100855.44;;;31.67;nan
30967;BME280;17649;51.836;8.330;2023-06-22T11:53:02;100855.00;;;31.39;nan
30967;BME280;17649;51.836;8.330;2023-06-22T11:56:02;100864.59;;;31.22;nan
30967;BME280;17649;51.836;8.330;2023-06-22T11:59:03;100869.56;;;31.11;nan
30967;BME280;17649;51.836;8.330;2023-06-22T12:02:03;100884.75;;;30.40;nan
30967;BME280;17649;51.836;8.330;2023-06-22T12:05:05;100901.66;;;29.33;nan
30967;BME280;17649;51.836;8.330;2023-06-22T12:08:08;100915.50;;;28.80;nan
30967;BME280;17649;51.836;8.330;2023-06-22T12:11:08;100922.78;;;28.37;nan
30967;BME280;17649;51.836;8.330;2023-06-22T12:14:08;100937.75;;;28.17;nan
30967;BME280;17649;51.836;8.330;2023-06-22T12:17:08;100934.59;;;28.07;nan
30967;BME280;17649;51.836;8.330;2023-06-22T12:20:09;100944.41;;;27.85;nan
30967;BME280;17649;51.836;8.330;2023-06-22T12:23:09;100940.25;;;27.61;nan
30967;BME280;17649;51.836;8.330;2023-06-22T12:26:10;100944.72;;;27.39;nan
30967;BME280;17649;51.836;8.330;2023-06-22T12:29:10;100946.19;;;27.27;nan
30967;BME280;17649;51.836;8.330;2023-06-22T12:32:10;100950.13;;;27.16;nan
30967;BME280;17649;51.836;8.330;2023-06-22T12:35:13;100946.28;;;27.04;nan
30967;BME280;17649;51.836;8.330;2023-06-22T12:38:13;100934.03;;;27.03;nan
30967;BME280;17649;51.836;8.330;2023-06-22T12:41:14;100937.38;;;26.82;nan
30967;BME280;17649;51.836;8.330;2023-06-22T12:44:14;100929.31;;;26.75;nan
30967;BME280;17649;51.836;8.330;2023-06-22T12:47:14;100911.03;;;26.66;nan
30967;BME280;17649;51.836;8.330;2023-06-22T12:50:14;100895.38;;;26.33;nan
30967;BME280;17649;51.836;8.330;2023-06-22T12:53:15;100886.06;;;26.00;nan
30967;BME280;17649;51.836;8.330;2023-06-22T12:56:15;100886.19;;;25.83;nan
30967;BME280;17649;51.836;8.330;2023-06-22T12:59:15;100902.72;;;25.63;nan
30967;BME280;17649;51.836;8.330;2023-06-22T13:02:17;100918.09;;;25.36;nan
30967;BME280;17649;51.836;8.330;2023-06-22T13:05:17;100928.13;;;25.18;nan
30967;BME280;17649;51.836;8.330;2023-06-22T13:08:17;100923.88;;;25.01;nan
30967;BME280;17649;51.836;8.330;2023-06-22T13:11:19;100926.91;;;24.73;nan
30967;BME280;17649;51.836;8.330;2023-06-22T13:14:19;100933.38;;;24.54;nan
30967;BME280;17649;51.836;8.330;2023-06-22T13:17:20;100931.06;;;24.27;nan
30967;BME280;17649;51.836;8.330;2023-06-22T13:20:20;100930.38;;;24.08;nan
30967;BME280;17649;51.836;8.330;2023-06-22T13:23:21;100959.81;;;23.97;nan
30967;BME280;17649;51.836;8.330;2023-06-22T13:26:21;100972.47;;;23.77;nan
30967;BME280;17649;51.836;8.330;2023-06-22T13:29:22;100971.59;;;23.61;nan
30967;BME280;17649;51.836;8.330;2023-06-22T13:32:22;100975.63;;;23.47;nan
30967;BME280;17649;51.836;8.330;2023-06-22T13:35:22;100988.63;;;23.32;nan
30967;BME280;17649;51.836;8.330;2023-06-22T13:38:23;101005.34;;;23.15;nan
30967;BME280;17649;51.836;8.330;2023-06-22T13:41:23;101011.84;;;22.95;nan
30967;BME280;17649;51.836;8.330;2023-06-22T13:44:23;101011.94;;;22.85;nan
30967;BME280;17649;51.836;8.330;2023-06-22T13:47:28;100991.34;;;22.88;nan
30967;BME280;17649;51.836;8.330;2023-06-22T13:50:28;100950.63;;;22.91;nan
30967;BME280;17649;51.836;8.330;2023-06-22T13:53:29;100913.34;;;22.86;nan
30967;BME280;17649;51.836;8.330;2023-06-22T13:56:30;100893.28;;;22.75;nan
30967;BME280;17649;51.836;8.330;2023-06-22T13:59:30;100898.38;;;22.43;nan
30967;BME280;17649;51.836;8.330;2023-06-22T14:02:30;100910.78;;;22.50;nan
30967;BME280;17649;51.836;8.330;2023-06-22T14:05:30;100904.72;;;22.58;nan
30967;BME280;17649;51.836;8.330;2023-06-22T14:08:31;100861.13;;;22.72;nan
30967;BME280;17649;51.836;8.330;2023-06-22T14:11:31;100842.91;;;22.52;nan
30967;BME280;17649;51.836;8.330;2023-06-22T14:14:31;100821.91;;;22.43;nan
30967;BME280;17649;51.836;8.330;2023-06-22T14:17:33;100808.16;;;22.57;nan
30967;BME280;17649;51.836;8.330;2023-06-22T14:20:34;100786.00;;;22.42;nan
30967;BME280;17649;51.836;8.330;2023-06-22T14:23:34;100787.63;;;22.43;nan
30967;BME280;17649;51.836;8.330;2023-06-22T14:26:34;100776.50;;;22.57;nan
30967;BME280;17649;51.836;8.330;2023-06-22T14:29:35;100759.84;;;22.90;nan
30967;BME280;17649;51.836;8.330;2023-06-22T14:32:35;100745.75;;;23.24;nan
30967;BME280;17649;51.836;8.330;2023-06-22T14:35:35;100733.53;;;23.64;nan
30967;BME280;17649;51.836;8.330;2023-06-22T14:38:35;100721.56;;;24.08;nan
30967;BME280;17649;51.836;8.330;2023-06-22T14:41:35;100726.53;;;25.58;nan
30967;BME280;17649;51.836;8.330;2023-06-22T14:44:36;100700.63;;;27.36;nan
30967;BME280;17649;51.836;8.330;2023-06-22T14:47:36;100696.31;;;28.67;nan
30967;BME280;17649;51.836;8.330;2023-06-22T14:50:36;100683.78;;;30.26;nan
30967;BME280;17649;51.836;8.330;2023-06-22T14:53:37;100681.69;;;31.61;nan
30967;BME280;17649;51.836;8.330;2023-06-22T14:56:37;100686.63;;;31.07;nan
30967;BME280;17649;51.836;8.330;2023-06-22T14:59:37;100693.78;;;29.59;nan
30967;BME280;17649;51.836;8.330;2023-06-22T15:02:37;100716.13;;;29.38;nan
30967;BME280;17649;51.836;8.330;2023-06-22T15:05:37;100723.47;;;29.30;nan
30967;BME280;17649;51.836;8.330;2023-06-22T15:08:38;100725.78;;;27.83;nan
30967;BME280;17649;51.836;8.330;2023-06-22T15:11:42;100721.84;;;28.48;nan
30967;BME280;17649;51.836;8.330;2023-06-22T15:14:42;100695.34;;;30.00;nan
30967;BME280;17649;51.836;8.330;2023-06-22T15:17:42;100676.72;;;31.14;nan
30967;BME280;17649;51.836;8.330;2023-06-22T15:20:43;100668.41;;;32.27;nan
30967;BME280;17649;51.836;8.330;2023-06-22T15:23:47;100645.66;;;33.43;nan
30967;BME280;17649;51.836;8.330;2023-06-22T15:26:47;100651.00;;;34.19;nan
30967;BME280;17649;51.836;8.330;2023-06-22T15:29:48;100663.59;;;33.78;nan
30967;BME280;17649;51.836;8.330;2023-06-22T15:32:48;100644.13;;;31.92;nan
30967;BME280;17649;51.836;8.330;2023-06-22T15:35:49;100619.03;;;32.83;nan
30967;BME280;17649;51.836;8.330;2023-06-22T15:38:49;100610.91;;;31.82;nan
30967;BME280;17649;51.836;8.330;2023-06-22T15:41:49;100602.19;;;30.05;nan
30967;BME280;17649;51.836;8.330;2023-06-22T15:44:50;100593.38;;;28.94;nan
30967;BME280;17649;51.836;8.330;2023-06-22T15:47:50;100590.59;;;28.34;nan
30967;BME280;17649;51.836;8.330;2023-06-22T15:50:50;100590.34;;;27.75;nan
30967;BME280;17649;51.836;8.330;2023-06-22T15:53:50;100574.19;;;26.92;nan
30967;BME280;17649;51.836;8.330;2023-06-22T15:56:50;100558.50;;;25.76;nan
30967;BME280;17649;51.836;8.330;2023-06-22T15:59:51;100544.13;;;25.55;nan
30967;BME280;17649;51.836;8.330;2023-06-22T16:02:51;100527.84;;;25.44;nan
30967;BME280;17649;51.836;8.330;2023-06-22T16:05:52;100546.56;;;25.13;nan
30967;BME280;17649;51.836;8.330;2023-06-22T16:08:52;100551.25;;;24.88;nan
30967;BME280;17649;51.836;8.330;2023-06-22T16:11:52;100557.88;;;24.84;nan
30967;BME280;17649;51.836;8.330;2023-06-22T16:14:52;100567.44;;;24.47;nan
30967;BME280;17649;51.836;8.330;2023-06-22T16:17:52;100568.16;;;24.41;nan